createdAt,value
2023-04-24T00:01:38.025Z,8.68
2023-04-24T00:04:05.185Z,8.27
2023-04-24T00:06:34.848Z,8.15
2023-04-24T00:09:02.351Z,7.63
2023-04-24T00:11:29.503Z,7.75
2023-04-24T00:13:57.148Z,8.05
2023-04-24T00:16:24.475Z,7.43
2023-04-24T00:18:53.754Z,7.75
2023-04-24T00:21:21.537Z,7.70
2023-04-24T00:23:49.061Z,7.65
2023-04-24T00:26:16.015Z,7.60
2023-04-24T00:28:42.981Z,7.07
2023-04-24T00:31:09.892Z,8.18
2023-04-24T00:33:36.950Z,8.13
2023-04-24T00:36:04.087Z,7.47
2023-04-24T00:38:31.017Z,7.60
2023-04-24T00:40:57.980Z,8.43
2023-04-24T00:43:24.873Z,8.07
2023-04-24T00:45:51.859Z,8.70
2023-04-24T00:48:19.493Z,8.38
2023-04-24T00:50:46.652Z,8.25
2023-04-24T00:53:13.641Z,8.25
2023-04-24T00:55:40.643Z,7.63
2023-04-24T00:58:07.660Z,8.70
2023-04-24T01:00:34.671Z,8.38
2023-04-24T01:03:03.125Z,7.80
2023-04-24T01:05:32.289Z,7.93
2023-04-24T01:08:00.503Z,8.60
2023-04-24T01:10:28.896Z,8.52
2023-04-24T01:12:55.898Z,8.10
2023-04-24T01:15:22.910Z,8.02
2023-04-24T01:17:49.781Z,7.57
2023-04-24T01:20:17.746Z,8.73
2023-04-24T01:22:44.714Z,9.27
2023-04-24T01:25:14.170Z,8.65
2023-04-24T01:27:41.199Z,8.77
2023-04-24T01:30:09.270Z,9.70
2023-04-24T01:32:36.786Z,8.73
2023-04-24T01:35:04.198Z,9.40
2023-04-24T01:37:33.214Z,9.20
2023-04-24T01:40:00.629Z,9.50
2023-04-24T01:42:27.767Z,9.00
2023-04-24T01:44:55.451Z,8.55
2023-04-24T01:47:22.379Z,8.50
2023-04-24T01:49:49.702Z,8.82
2023-04-24T01:52:17.462Z,9.07
2023-04-24T01:54:44.376Z,10.40
2023-04-24T01:57:11.642Z,10.13
2023-04-24T01:59:38.594Z,9.30
2023-04-24T02:02:07.312Z,9.10
2023-04-24T02:04:34.356Z,9.10
2023-04-24T02:07:01.237Z,11.65
2023-04-24T02:09:28.757Z,10.75
2023-04-24T02:11:55.717Z,11.50
2023-04-24T02:14:24.703Z,10.48
2023-04-24T02:16:51.770Z,10.30
2023-04-24T02:19:18.756Z,11.98
2023-04-24T02:21:45.754Z,11.98
2023-04-24T02:24:12.625Z,11.00
2023-04-24T02:26:39.514Z,12.38
2023-04-24T02:29:06.623Z,12.40
2023-04-24T02:31:33.615Z,12.32
2023-04-24T02:34:00.781Z,12.60
2023-04-24T02:36:27.727Z,11.27
2023-04-24T02:38:54.660Z,11.65
2023-04-24T02:41:22.099Z,9.73
2023-04-24T02:43:49.088Z,10.35
2023-04-24T02:46:16.171Z,9.90
2023-04-24T02:48:43.120Z,9.13
2023-04-24T02:51:10.774Z,8.77
2023-04-24T02:53:37.713Z,8.85
2023-04-24T02:56:04.700Z,9.18
2023-04-24T02:58:31.642Z,9.63
2023-04-24T03:00:58.486Z,8.77
2023-04-24T03:03:25.845Z,8.98
2023-04-24T03:05:53.019Z,9.15
2023-04-24T03:08:20.036Z,8.95
2023-04-24T03:10:48.248Z,9.07
2023-04-24T03:13:16.862Z,8.77
2023-04-24T03:15:43.858Z,9.63
2023-04-24T03:18:10.806Z,8.88
2023-04-24T03:20:38.637Z,8.32
2023-04-24T03:23:05.694Z,8.15
2023-04-24T03:25:32.559Z,8.25
2023-04-24T03:27:59.512Z,9.13
2023-04-24T03:30:26.437Z,8.85
2023-04-24T03:32:53.373Z,8.35
2023-04-24T03:35:20.491Z,9.55
2023-04-24T03:37:47.373Z,10.45
2023-04-24T03:40:14.224Z,10.80
2023-04-24T03:42:41.125Z,10.60
2023-04-24T03:45:08.691Z,10.52
2023-04-24T03:47:35.770Z,10.38
2023-04-24T03:50:02.843Z,10.63
2023-04-24T03:52:29.895Z,10.82
2023-04-24T03:54:56.802Z,10.70
2023-04-24T03:57:23.661Z,11.10
2023-04-24T03:59:50.568Z,10.25
2023-04-24T04:02:17.617Z,10.90
2023-04-24T04:04:44.777Z,10.25
2023-04-24T04:07:12.389Z,10.02
2023-04-24T04:09:41.679Z,10.23
2023-04-24T04:12:08.876Z,10.48
2023-04-24T04:14:35.712Z,10.40
2023-04-24T04:17:02.769Z,10.88
2023-04-24T04:19:29.651Z,11.88
2023-04-24T04:21:57.327Z,11.68
2023-04-24T04:24:25.268Z,10.85
2023-04-24T04:26:53.303Z,10.18
2023-04-24T04:29:20.288Z,10.02
2023-04-24T04:31:47.419Z,15.77
2023-04-24T04:34:15.303Z,14.45
2023-04-24T04:36:47.433Z,12.80
2023-04-24T04:39:16.143Z,12.23
2023-04-24T04:41:43.138Z,10.18
2023-04-24T04:44:10.886Z,11.15
2023-04-24T04:46:40.355Z,11.52
2023-04-24T04:49:09.439Z,10.68
2023-04-24T04:51:36.399Z,10.23
2023-04-24T04:54:03.315Z,9.98
2023-04-24T04:56:32.295Z,10.88
2023-04-24T04:59:00.492Z,10.15
2023-04-24T05:01:28.683Z,11.07
2023-04-24T05:03:55.769Z,10.52
2023-04-24T05:06:24.342Z,10.50
2023-04-24T05:08:58.110Z,11.00
2023-04-24T05:11:25.179Z,10.88
2023-04-24T05:13:51.995Z,10.98
2023-04-24T05:16:21.137Z,12.25
2023-04-24T05:18:48.244Z,12.73
2023-04-24T05:21:15.133Z,13.40
2023-04-24T05:23:55.152Z,12.25
2023-04-24T05:26:22.286Z,12.07
2023-04-24T05:28:49.136Z,11.60
2023-04-24T05:31:16.058Z,10.65
2023-04-24T05:33:43.155Z,11.07
2023-04-24T05:36:10.224Z,10.60
2023-04-24T05:38:39.363Z,10.35
2023-04-24T05:41:06.460Z,10.98
2023-04-24T05:43:35.567Z,10.48
2023-04-24T05:46:02.449Z,10.70
2023-04-24T05:48:29.528Z,11.68
2023-04-24T05:50:56.559Z,11.20
2023-04-24T05:53:23.460Z,10.13
2023-04-24T05:55:50.718Z,10.25
2023-04-24T05:58:17.710Z,10.52
2023-04-24T06:00:47.265Z,10.60
2023-04-24T06:03:14.475Z,10.02
2023-04-24T06:05:41.552Z,11.05
2023-04-24T06:08:08.558Z,10.10
2023-04-24T06:10:35.700Z,10.35
2023-04-24T06:13:02.654Z,11.25
2023-04-24T06:15:32.638Z,14.00
2023-04-24T06:17:59.853Z,12.23
2023-04-24T06:20:27.278Z,10.07
2023-04-24T06:22:54.975Z,10.55
2023-04-24T06:25:22.075Z,10.80
2023-04-24T06:27:51.687Z,10.90
2023-04-24T06:30:18.596Z,13.00
2023-04-24T06:32:45.527Z,11.18
2023-04-24T06:35:13.380Z,10.18
2023-04-24T06:37:41.113Z,10.85
2023-04-24T06:40:08.877Z,10.40
2023-04-24T06:42:36.512Z,10.30
2023-04-24T06:45:04.298Z,9.95
2023-04-24T06:47:31.429Z,9.13
2023-04-24T06:49:58.529Z,9.00
2023-04-24T06:52:25.824Z,8.80
2023-04-24T06:54:52.693Z,8.68
2023-04-24T06:57:20.118Z,9.23
2023-04-24T06:59:47.172Z,9.23
2023-04-24T07:02:14.084Z,9.95
2023-04-24T07:04:41.534Z,9.30
2023-04-24T07:07:10.542Z,8.02
2023-04-24T07:09:39.847Z,8.57
2023-04-24T07:12:07.051Z,9.00
2023-04-24T07:14:34.014Z,8.50
2023-04-24T07:17:01.043Z,8.75
2023-04-24T07:19:27.993Z,8.18
2023-04-24T07:21:56.352Z,8.27
2023-04-24T07:24:24.951Z,8.63
2023-04-24T07:26:53.870Z,8.23
2023-04-24T07:29:21.115Z,7.50
2023-04-24T07:31:48.361Z,7.88
2023-04-24T07:34:15.253Z,7.43
2023-04-24T07:36:42.628Z,8.48
2023-04-24T07:39:10.197Z,7.40
2023-04-24T07:41:39.551Z,7.07
2023-04-24T07:44:06.847Z,6.43
2023-04-24T07:46:33.826Z,7.72
2023-04-24T07:49:12.155Z,6.85
2023-04-24T07:51:41.119Z,7.13
2023-04-24T07:54:08.108Z,6.53
2023-04-24T07:56:35.609Z,6.82
2023-04-24T07:59:02.501Z,6.97
2023-04-24T08:01:29.445Z,6.15
2023-04-24T08:03:57.005Z,6.57
2023-04-24T08:06:24.129Z,6.75
2023-04-24T08:08:51.255Z,7.07
2023-04-24T08:11:18.084Z,7.00
2023-04-24T08:13:44.996Z,6.50
2023-04-24T08:16:11.998Z,6.22
2023-04-24T08:18:38.954Z,6.43
2023-04-24T08:21:05.916Z,5.47
2023-04-24T08:23:32.862Z,5.50
2023-04-24T08:25:59.839Z,5.72
2023-04-24T08:28:26.970Z,5.20
2023-04-24T08:30:55.886Z,6.40
2023-04-24T08:33:26.141Z,6.03
2023-04-24T08:35:53.941Z,5.30
2023-04-24T08:38:20.987Z,4.95
2023-04-24T08:40:50.598Z,5.05
2023-04-24T08:43:17.913Z,5.13
2023-04-24T08:45:45.419Z,5.30
2023-04-24T08:48:23.436Z,5.50
2023-04-24T08:51:00.288Z,5.20
2023-04-24T08:53:27.920Z,5.68
2023-04-24T08:55:57.910Z,5.40
2023-04-24T08:58:27.651Z,5.43
2023-04-24T09:00:58.445Z,5.30
2023-04-24T09:03:26.131Z,5.85
2023-04-24T09:05:53.962Z,5.18
2023-04-24T09:08:21.173Z,5.93
2023-04-24T09:10:51.082Z,6.40
2023-04-24T09:13:20.119Z,5.43
2023-04-24T09:15:47.168Z,5.32
2023-04-24T09:18:14.106Z,5.85
2023-04-24T09:21:00.263Z,6.35
2023-04-24T09:23:29.252Z,6.30
2023-04-24T09:25:57.393Z,5.90
2023-04-24T09:28:43.091Z,6.03
2023-04-24T09:31:14.054Z,5.65
2023-04-24T09:33:41.177Z,6.00
2023-04-24T09:36:08.198Z,4.93
2023-04-24T09:38:38.727Z,5.65
2023-04-24T09:41:09.686Z,5.82
2023-04-24T09:43:36.796Z,5.53
2023-04-24T09:46:09.705Z,5.65
2023-04-24T09:48:38.661Z,5.88
2023-04-24T09:51:16.243Z,5.40
2023-04-24T09:53:47.999Z,4.78
2023-04-24T09:56:14.863Z,5.53
2023-04-24T09:58:41.854Z,5.07
2023-04-24T10:01:08.809Z,4.93
2023-04-24T10:03:36.631Z,5.10
2023-04-24T10:06:09.697Z,5.47
2023-04-24T10:08:38.541Z,5.45
2023-04-24T10:11:05.882Z,6.38
2023-04-24T10:13:33.782Z,5.90
2023-04-24T10:16:02.182Z,5.95
2023-04-24T10:18:29.655Z,5.30
2023-04-24T10:20:59.108Z,5.15
2023-04-24T10:23:27.012Z,5.38
2023-04-24T10:25:55.413Z,5.07
2023-04-24T10:28:22.870Z,5.15
2023-04-24T10:30:50.972Z,5.30
2023-04-24T10:33:18.551Z,6.18
2023-04-24T10:35:48.877Z,5.40
2023-04-24T10:38:19.920Z,5.75
2023-04-24T10:40:46.888Z,5.60
2023-04-24T10:43:18.339Z,5.40
2023-04-24T10:46:04.882Z,6.35
2023-04-24T10:48:33.433Z,5.57
2023-04-24T10:51:01.453Z,5.30
2023-04-24T10:53:31.948Z,4.93
2023-04-24T10:56:07.892Z,5.13
2023-04-24T10:58:54.760Z,4.30
2023-04-24T11:01:33.218Z,5.28
2023-04-24T11:04:03.412Z,5.60
2023-04-24T11:06:35.919Z,5.40
2023-04-24T11:09:13.405Z,4.82
2023-04-24T11:11:46.499Z,5.20
2023-04-24T11:14:16.389Z,5.00
2023-04-24T11:16:54.107Z,5.03
2023-04-24T11:19:27.005Z,5.32
2023-04-24T11:22:03.747Z,5.40
2023-04-24T11:24:30.608Z,6.43
2023-04-24T11:27:22.383Z,5.55
2023-04-24T11:29:59.038Z,5.65
2023-04-24T11:32:35.527Z,5.50
2023-04-24T11:35:09.686Z,5.57
2023-04-24T11:37:38.925Z,5.97
2023-04-24T11:40:07.821Z,4.97
2023-04-24T11:42:38.709Z,5.00
2023-04-24T11:45:10.713Z,4.93
2023-04-24T11:47:37.849Z,5.18
2023-04-24T11:50:09.681Z,5.15
2023-04-24T11:52:41.305Z,5.25
2023-04-24T11:55:29.568Z,5.50
2023-04-24T11:57:58.595Z,6.18
2023-04-24T12:00:27.639Z,5.75
2023-04-24T12:03:06.985Z,5.72
2023-04-24T12:05:34.499Z,5.10
2023-04-24T12:08:03.662Z,4.93
2023-04-24T12:10:32.290Z,5.82
2023-04-24T12:13:00.240Z,6.03
2023-04-24T12:15:27.650Z,6.30
2023-04-24T12:17:55.759Z,5.65
2023-04-24T12:20:30.781Z,4.97
2023-04-24T12:22:59.018Z,5.10
2023-04-24T12:25:28.014Z,5.43
2023-04-24T12:28:04.196Z,5.40
2023-04-24T12:30:35.896Z,5.40
2023-04-24T12:33:04.093Z,4.95
2023-04-24T12:35:34.600Z,5.65
2023-04-24T12:38:09.402Z,5.35
2023-04-24T12:40:36.373Z,5.15
2023-04-24T12:43:03.728Z,6.95
2023-04-24T12:45:30.571Z,6.50
2023-04-24T12:47:57.542Z,6.90
2023-04-24T12:50:26.557Z,6.07
2023-04-24T12:52:53.434Z,6.55
2023-04-24T12:55:20.325Z,6.38
2023-04-24T12:57:47.502Z,6.22
2023-04-24T13:00:14.714Z,7.05
2023-04-24T13:02:41.769Z,6.43
2023-04-24T13:05:09.538Z,6.85
2023-04-24T13:07:36.429Z,6.47
2023-04-24T13:10:03.431Z,5.80
2023-04-24T13:12:30.311Z,5.65
2023-04-24T13:14:57.489Z,5.53
2023-04-24T13:17:24.443Z,5.53
2023-04-24T13:19:52.730Z,5.97
2023-04-24T13:22:19.952Z,5.63
2023-04-24T13:24:49.776Z,5.30
2023-04-24T13:27:17.222Z,5.13
2023-04-24T13:29:46.975Z,5.28
2023-04-24T13:32:13.981Z,5.22
2023-04-24T13:34:41.104Z,5.13
2023-04-24T13:37:09.136Z,4.68
2023-04-24T13:39:36.469Z,4.50
2023-04-24T13:42:09.073Z,4.60
2023-04-24T13:44:38.683Z,4.03
2023-04-24T13:47:06.756Z,3.70
2023-04-24T13:49:33.652Z,3.47
2023-04-24T13:52:00.713Z,3.92
2023-04-24T13:54:27.720Z,4.10
2023-04-24T13:56:57.976Z,3.90
2023-04-24T13:59:25.091Z,4.95
2023-04-24T14:01:52.026Z,5.07
2023-04-24T14:04:19.305Z,4.85
2023-04-24T14:06:46.305Z,4.55
2023-04-24T14:09:13.899Z,4.60
2023-04-24T14:11:41.696Z,4.65
2023-04-24T14:14:09.257Z,4.72
2023-04-24T14:16:36.407Z,4.35
2023-04-24T14:19:03.396Z,4.32
2023-04-24T14:21:31.157Z,5.55
2023-04-24T14:23:58.033Z,4.75
2023-04-24T14:26:25.892Z,4.25
2023-04-24T14:28:58.211Z,4.38
2023-04-24T14:31:34.764Z,4.10
2023-04-24T14:34:01.764Z,4.00
2023-04-24T14:36:28.621Z,4.82
2023-04-24T14:38:55.656Z,3.88
2023-04-24T14:41:24.971Z,3.95
2023-04-24T14:43:52.205Z,3.50
2023-04-24T14:46:19.170Z,3.42
2023-04-24T14:48:50.641Z,4.45
2023-04-24T14:51:22.085Z,4.22
2023-04-24T14:53:48.968Z,3.75
2023-04-24T14:56:18.322Z,3.50
2023-04-24T14:58:45.363Z,4.43
2023-04-24T15:01:12.472Z,3.70
2023-04-24T15:03:39.513Z,3.47
2023-04-24T15:06:06.837Z,3.70
2023-04-24T15:08:34.058Z,3.30
2023-04-24T15:11:01.008Z,3.00
2023-04-24T15:13:27.923Z,2.80
2023-04-24T15:15:54.854Z,3.05
2023-04-24T15:18:21.703Z,2.42
2023-04-24T15:20:48.584Z,2.47
2023-04-24T15:23:15.656Z,2.10
2023-04-24T15:25:42.552Z,2.13
2023-04-24T15:28:09.443Z,2.67
2023-04-24T15:30:36.737Z,3.00
2023-04-24T15:33:03.737Z,2.33
2023-04-24T15:35:30.809Z,2.00
2023-04-24T15:37:57.795Z,2.00
2023-04-24T15:40:24.796Z,2.50
2023-04-24T15:42:51.788Z,2.10
2023-04-24T15:45:18.983Z,2.30
2023-04-24T15:47:47.594Z,2.35
2023-04-24T15:50:16.515Z,2.55
2023-04-24T15:52:46.586Z,2.33
2023-04-24T15:55:13.596Z,1.90
2023-04-24T15:57:40.900Z,2.13
2023-04-24T16:00:09.749Z,1.88
2023-04-24T16:02:36.930Z,2.50
2023-04-24T16:05:07.841Z,2.20
2023-04-24T16:07:35.406Z,2.47
2023-04-24T16:10:02.464Z,2.60
2023-04-24T16:12:29.404Z,3.08
2023-04-24T16:14:56.909Z,2.90
2023-04-24T16:17:23.821Z,2.97
2023-04-24T16:19:50.712Z,2.83
2023-04-24T16:22:17.569Z,3.13
2023-04-24T16:24:47.128Z,2.30
2023-04-24T16:27:15.533Z,2.35
2023-04-24T16:29:42.522Z,2.70
2023-04-24T16:32:10.815Z,2.70
2023-04-24T16:34:37.927Z,2.40
2023-04-24T16:37:05.668Z,2.33
2023-04-24T16:39:32.550Z,2.30
2023-04-24T16:42:00.382Z,2.47
2023-04-24T16:44:28.471Z,2.92
2023-04-24T16:46:55.774Z,3.08
2023-04-24T16:49:23.926Z,2.85
2023-04-24T16:51:51.035Z,3.00
2023-04-24T16:54:17.983Z,3.03
2023-04-24T16:56:44.869Z,2.47
2023-04-24T16:59:11.873Z,2.72
2023-04-24T17:01:40.912Z,2.10
2023-04-24T17:04:08.081Z,1.60
2023-04-24T17:06:35.425Z,1.80
2023-04-24T17:09:02.640Z,1.90
2023-04-24T17:11:31.262Z,2.15
2023-04-24T17:14:00.042Z,2.10
2023-04-24T17:16:29.600Z,1.73
2023-04-24T17:18:56.566Z,1.73
2023-04-24T17:21:23.588Z,1.75
2023-04-24T17:23:50.512Z,2.40
2023-04-24T17:26:17.412Z,1.92
2023-04-24T17:28:44.246Z,2.28
2023-04-24T17:31:13.437Z,2.33
2023-04-24T17:33:40.367Z,2.80
2023-04-24T17:36:07.533Z,3.20
2023-04-24T17:38:34.543Z,2.40
2023-04-24T17:41:01.679Z,3.20
2023-04-24T17:43:28.594Z,3.13
2023-04-24T17:45:56.408Z,3.08
2023-04-24T17:48:23.624Z,3.55
2023-04-24T17:50:50.607Z,3.03
2023-04-24T17:53:18.921Z,3.50
2023-04-24T17:55:49.051Z,2.95
2023-04-24T17:58:15.920Z,2.50
2023-04-24T18:00:43.051Z,3.22
2023-04-24T18:03:10.700Z,2.85
2023-04-24T18:05:38.711Z,2.70
2023-04-24T18:08:06.062Z,4.05
2023-04-24T18:10:36.394Z,5.82
2023-04-24T18:13:04.353Z,5.97
2023-04-24T18:15:31.324Z,6.10
2023-04-24T18:17:58.237Z,6.13
2023-04-24T18:20:25.364Z,5.65
2023-04-24T18:22:52.677Z,4.60
2023-04-24T18:25:26.818Z,3.75
2023-04-24T18:27:54.829Z,2.85
2023-04-24T18:30:25.452Z,3.83
2023-04-24T18:32:53.427Z,2.75
2023-04-24T18:35:21.169Z,3.10
2023-04-24T18:37:50.886Z,2.92
2023-04-24T18:40:17.995Z,3.13
2023-04-24T18:42:45.188Z,3.45
2023-04-24T18:45:14.714Z,3.38
2023-04-24T18:47:44.669Z,3.63
2023-04-24T18:50:11.990Z,3.58
2023-04-24T18:52:39.271Z,4.45
2023-04-24T18:55:07.090Z,3.58
2023-04-24T18:57:34.228Z,4.28
2023-04-24T19:00:01.202Z,3.38
2023-04-24T19:02:28.403Z,4.10
2023-04-24T19:04:55.714Z,3.67
2023-04-24T19:07:22.663Z,3.85
2023-04-24T19:09:49.533Z,3.60
2023-04-24T19:12:19.584Z,3.65
2023-04-24T19:14:48.070Z,3.63
2023-04-24T19:17:14.970Z,4.10
2023-04-24T19:19:41.869Z,3.70
2023-04-24T19:22:09.033Z,4.22
2023-04-24T19:24:36.301Z,4.97
2023-04-24T19:27:03.397Z,5.90
2023-04-24T19:29:32.070Z,6.18
2023-04-24T19:31:59.012Z,6.25
2023-04-24T19:34:26.577Z,6.82
2023-04-24T19:36:53.535Z,6.95
2023-04-24T19:39:20.588Z,6.97
2023-04-24T19:41:47.722Z,7.15
2023-04-24T19:44:15.717Z,7.68
2023-04-24T19:46:43.028Z,8.05
2023-04-24T19:49:09.964Z,6.95
2023-04-24T19:51:37.741Z,5.95
2023-04-24T19:54:06.321Z,6.30
2023-04-24T19:56:33.676Z,6.38
2023-04-24T19:59:01.084Z,5.72
2023-04-24T20:01:28.151Z,5.75
2023-04-24T20:03:55.393Z,5.47
2023-04-24T20:06:22.440Z,6.88
2023-04-24T20:08:49.615Z,6.90
2023-04-24T20:11:16.851Z,7.30
2023-04-24T20:13:43.892Z,7.65
2023-04-24T20:16:11.557Z,9.00
2023-04-24T20:18:39.260Z,7.80
2023-04-24T20:21:06.353Z,9.02
2023-04-24T20:23:33.268Z,8.60
2023-04-24T20:26:01.124Z,9.75
2023-04-24T20:28:30.447Z,9.27
2023-04-24T20:30:58.556Z,8.88
2023-04-24T20:33:26.063Z,9.52
2023-04-24T20:35:52.916Z,8.85
2023-04-24T20:38:19.868Z,7.18
2023-04-24T20:40:57.757Z,6.93
2023-04-24T20:43:29.064Z,7.82
2023-04-24T20:45:58.339Z,7.30
2023-04-24T20:48:26.318Z,7.60
2023-04-24T20:50:56.155Z,7.07
2023-04-24T20:53:25.710Z,6.57
2023-04-24T20:55:52.709Z,6.72
2023-04-24T20:58:23.003Z,6.10
2023-04-24T21:00:50.291Z,6.43
2023-04-24T21:03:17.359Z,5.50
2023-04-24T21:05:50.323Z,6.47
2023-04-24T21:08:17.783Z,6.05
2023-04-24T21:10:47.269Z,5.82
2023-04-24T21:13:14.094Z,5.72
2023-04-24T21:15:40.931Z,4.97
2023-04-24T21:18:07.970Z,5.85
2023-04-24T21:20:35.015Z,5.03
2023-04-24T21:23:01.852Z,5.18
2023-04-24T21:25:29.126Z,5.45
2023-04-24T21:27:58.019Z,5.05
2023-04-24T21:30:27.576Z,5.07
2023-04-24T21:32:54.657Z,4.47
2023-04-24T21:35:21.739Z,4.65
2023-04-24T21:37:48.608Z,4.90
2023-04-24T21:40:16.078Z,3.80
2023-04-24T21:42:43.331Z,4.38
2023-04-24T21:45:10.888Z,3.10
2023-04-24T21:47:37.896Z,3.65
2023-04-24T21:50:05.717Z,3.33
2023-04-24T21:52:34.737Z,3.55
2023-04-24T21:55:01.596Z,3.60
2023-04-24T21:57:29.589Z,3.67
2023-04-24T21:59:56.637Z,3.40
2023-04-24T22:02:23.720Z,3.55
2023-04-24T22:04:51.901Z,3.40
2023-04-24T22:07:22.302Z,3.42
2023-04-24T22:09:49.176Z,3.50
2023-04-24T22:12:19.000Z,3.30
2023-04-24T22:14:46.053Z,3.38
2023-04-24T22:17:13.207Z,2.78
2023-04-24T22:19:43.678Z,3.17
2023-04-24T22:22:13.257Z,2.78
2023-04-24T22:24:40.118Z,2.65
2023-04-24T22:27:06.952Z,3.13
2023-04-24T22:29:33.866Z,2.78
2023-04-24T22:32:01.107Z,2.78
2023-04-24T22:34:28.185Z,2.40
2023-04-24T22:36:55.034Z,2.40
2023-04-24T22:39:22.074Z,2.13
2023-04-24T22:41:49.110Z,2.00
2023-04-24T22:44:16.028Z,2.60
2023-04-24T22:46:43.012Z,2.10
2023-04-24T22:49:10.190Z,2.10
2023-04-24T22:51:37.595Z,2.65
2023-04-24T22:54:05.016Z,2.65
2023-04-24T22:56:32.193Z,2.38
2023-04-24T22:58:59.232Z,2.25
2023-04-24T23:01:29.503Z,2.83
2023-04-24T23:03:56.604Z,2.45
2023-04-24T23:06:23.689Z,3.08
2023-04-24T23:08:50.949Z,2.63
2023-04-24T23:11:18.253Z,2.47
2023-04-24T23:13:47.519Z,2.95
2023-04-24T23:16:14.612Z,3.20
2023-04-24T23:18:41.462Z,2.95
2023-04-24T23:21:08.440Z,2.78
2023-04-24T23:23:36.467Z,2.97
2023-04-24T23:26:03.392Z,2.75
2023-04-24T23:28:30.390Z,2.67
2023-04-24T23:30:57.404Z,2.63
2023-04-24T23:33:24.395Z,2.55
2023-04-24T23:35:52.700Z,3.40
2023-04-24T23:38:24.275Z,2.53
2023-04-24T23:40:52.145Z,2.70
2023-04-24T23:43:19.067Z,2.50
2023-04-24T23:45:46.059Z,3.25
2023-04-24T23:48:15.063Z,2.95
2023-04-24T23:50:42.250Z,3.08
2023-04-24T23:53:09.585Z,2.90
2023-04-24T23:55:36.462Z,2.92
2023-04-24T23:58:03.810Z,3.40
